Time;durP1;ratioP1;P1;durP2;ratioP2;P2;SDS_P1;SDS_P2;PMS_P1;PMS_P2;Temp;Humidity;BMP_temperature;BMP_pressure;BME280_temperature;BME280_humidity;BME280_pressure;Samples;Min_cycle;Max_cycle;Signal;HPM_P1;HPM_P2
2021/04/07 00:01:53;;;;;;;0.82;0.47;;;;;;;1.09;63.63;99144.06;2036566;77;20646;-68
2021/04/07 00:05:13;;;;;;;1.48;0.70;;;;;;;1.10;63.79;99150.91;2035430;79;20324;-68
2021/04/07 00:08:20;;;;;;;0.71;0.40;;;;;;;1.11;63.85;99155.19;2035533;79;20462;-68
2021/04/07 00:11:22;;;;;;;1.15;0.61;;;;;;;1.10;63.80;99156.88;2035130;79;20352;-67
2021/04/07 00:14:24;;;;;;;0.54;0.47;;;;;;;1.10;63.93;99156.88;2035379;79;20390;-69
2021/04/07 00:17:26;;;;;;;1.25;0.82;;;;;;;1.14;63.84;99158.69;2043580;78;21635;-68
2021/04/07 00:20:28;;;;;;;1.01;0.55;;;;;;;1.16;63.84;99158.75;2045562;79;20367;-69
2021/04/07 00:23:30;;;;;;;0.94;0.59;;;;;;;1.10;63.57;99159.44;2046164;79;20322;-69
2021/04/07 00:26:34;;;;;;;0.93;0.40;;;;;;;1.10;63.42;99156.03;2045803;79;20764;-68
2021/04/07 00:29:36;;;;;;;1.48;0.50;;;;;;;1.06;63.60;99157.59;2046134;79;20316;-68
2021/04/07 00:32:38;;;;;;;1.38;0.64;;;;;;;1.04;63.35;99161.78;2036021;76;20321;-68
2021/04/07 00:35:40;;;;;;;0.40;0.40;;;;;;;0.98;63.40;99168.44;2035882;79;20478;-68
2021/04/07 00:38:42;;;;;;;1.20;0.40;;;;;;;0.90;63.60;99173.31;2035174;79;20346;-68
2021/04/07 00:41:44;;;;;;;0.66;0.50;;;;;;;0.80;63.76;99179.81;2034809;79;20338;-68
2021/04/07 00:44:45;;;;;;;0.93;0.60;;;;;;;0.76;63.97;99184.81;2035000;79;20350;-68
2021/04/07 00:47:49;;;;;;;0.57;0.55;;;;;;;0.70;63.99;99189.69;2034395;76;21345;-68
2021/04/07 00:50:51;;;;;;;0.76;0.50;;;;;;;0.66;64.22;99183.63;2035572;79;21037;-68
2021/04/07 00:53:53;;;;;;;1.60;0.47;;;;;;;0.64;64.31;99192.06;2035426;79;20305;-68
2021/04/07 00:56:55;;;;;;;0.74;0.59;;;;;;;0.62;64.60;99202.25;2036446;79;20320;-68
2021/04/07 00:59:57;;;;;;;1.60;0.50;;;;;;;0.63;64.88;99201.44;2035312;79;20857;-69
2021/04/07 01:03:00;;;;;;;0.82;0.50;;;;;;;0.64;64.85;99204.84;2037686;77;25319;-68
2021/04/07 01:06:04;;;;;;;0.60;0.56;;;;;;;0.63;65.03;99211.66;2034955;79;20394;-68
2021/04/07 01:09:06;;;;;;;1.84;0.70;;;;;;;0.67;65.03;99213.47;2034669;79;20857;-68
2021/04/07 01:12:08;;;;;;;0.68;0.52;;;;;;;0.72;64.94;99219.63;2035522;79;20334;-68
2021/04/07 01:15:13;;;;;;;0.40;0.40;;;;;;;0.69;64.78;99214.38;2035058;79;20329;-68
2021/04/07 01:18:14;;;;;;;0.73;0.60;;;;;;;0.69;65.15;99221.19;2042128;79;20775;-68
2021/04/07 01:21:17;;;;;;;1.38;0.60;;;;;;;0.73;65.11;99229.03;2040463;79;20325;-68
2021/04/07 01:24:20;;;;;;;2.74;0.50;;;;;;;0.71;64.85;99222.97;2040332;79;20312;-68
2021/04/07 01:27:22;;;;;;;1.38;0.61;;;;;;;0.75;64.70;99226.50;2040663;79;20353;-68
2021/04/07 01:30:24;;;;;;;0.89;0.46;;;;;;;0.76;63.68;99228.25;2039593;77;21211;-68
2021/04/07 01:33:26;;;;;;;1.65;0.70;;;;;;;0.79;63.28;99231.75;2048714;78;20303;-68
2021/04/07 01:36:28;;;;;;;0.96;0.52;;;;;;;0.82;63.04;99230.97;2045090;79;20975;-68
2021/04/07 01:39:30;;;;;;;0.77;0.45;;;;;;;0.81;62.53;99235.22;2045466;79;20833;-68
2021/04/07 01:42:32;;;;;;;0.54;0.40;;;;;;;0.81;62.51;99235.22;2045397;79;20337;-68
2021/04/07 01:45:34;;;;;;;0.90;0.40;;;;;;;0.80;62.81;99247.97;2043096;77;20563;-68
2021/04/07 01:48:35;;;;;;;0.70;0.36;;;;;;;0.78;62.87;99240.25;2035189;79;20335;-68
2021/04/07 01:51:38;;;;;;;0.84;0.34;;;;;;;0.81;63.16;99248.00;2034691;79;20386;-68
2021/04/07 01:54:40;;;;;;;0.35;0.30;;;;;;;0.81;63.52;99259.91;2035413;79;21190;-68
2021/04/07 01:57:46;;;;;;;0.80;0.60;;;;;;;0.76;63.62;99248.69;2034354;79;20412;-68
2021/04/07 02:00:47;;;;;;;0.75;0.45;;;;;;;0.72;64.07;99257.03;2033582;77;20798;-68
2021/04/07 02:03:49;;;;;;;0.96;0.82;;;;;;;0.68;64.87;99257.78;2031387;79;20310;-68
2021/04/07 02:06:51;;;;;;;0.41;0.41;;;;;;;0.66;64.92;99261.97;2031479;79;20723;-68
2021/04/07 02:09:53;;;;;;;1.34;0.50;;;;;;;0.62;65.01;99257.59;2030520;79;20337;-68
2021/04/07 02:12:57;;;;;;;3.58;0.40;;;;;;;0.56;65.06;99259.13;2031234;79;20346;-68
2021/04/07 02:15:58;;;;;;;0.75;0.40;;;;;;;0.47;65.41;99263.91;2031118;76;20913;-68
2021/04/07 02:19:02;;;;;;;0.73;0.40;;;;;;;0.48;65.73;99264.78;2035695;79;20852;-68
2021/04/07 02:22:23;;;;;;;0.55;0.34;;;;;;;0.47;66.13;99260.50;2036227;79;20324;-68
2021/04/07 02:25:24;;;;;;;1.26;0.50;;;;;;;0.48;66.20;99265.66;2035911;79;20331;-68
2021/04/07 02:28:27;;;;;;;1.56;0.50;;;;;;;0.51;66.37;99264.88;2040154;79;20327;-68
2021/04/07 02:31:28;;;;;;;0.44;0.40;;;;;;;0.51;66.46;99283.63;2033057;77;20321;-68
2021/04/07 02:34:31;;;;;;;1.45;0.43;;;;;;;0.43;66.00;99276.53;2031179;79;20321;-68
2021/04/07 02:37:32;;;;;;;0.82;0.43;;;;;;;0.32;66.30;99286.38;2031257;79;20357;-69
2021/04/07 02:40:34;;;;;;;0.74;0.41;;;;;;;0.31;65.87;99279.53;2030598;79;20313;-68
2021/04/07 02:43:36;;;;;;;3.20;0.50;;;;;;;0.25;65.78;99287.88;2030562;79;20309;-68
2021/04/07 02:46:38;;;;;;;1.05;0.51;;;;;;;0.19;65.60;99299.56;2032358;77;20655;-68
2021/04/07 02:49:40;;;;;;;1.60;0.60;;;;;;;0.15;65.63;99307.91;2036314;79;20354;-68
2021/04/07 02:52:41;;;;;;;1.15;0.57;;;;;;;0.12;65.84;99308.66;2036770;79;20313;-68
2021/04/07 02:55:43;;;;;;;3.08;0.43;;;;;;;0.12;66.17;99305.25;2036290;79;20478;-68
2021/04/07 02:58:45;;;;;;;2.33;0.56;;;;;;;0.10;66.14;99305.19;2037179;79;20329;-68
2021/04/07 03:01:47;;;;;;;1.01;0.40;;;;;;;0.09;65.76;99313.66;2034006;79;45826;-68
2021/04/07 03:04:49;;;;;;;0.88;0.40;;;;;;;0.04;65.69;99320.28;2029638;79;20353;-68
2021/04/07 03:07:51;;;;;;;1.67;0.71;;;;;;;0.09;65.73;99323.00;2030402;79;20323;-68
2021/04/07 03:10:52;;;;;;;1.21;0.68;;;;;;;0.11;65.86;99331.59;2030422;79;20355;-68
2021/04/07 03:13:55;;;;;;;2.54;1.14;;;;;;;0.15;65.45;99341.09;2029914;79;20326;-68
2021/04/07 03:16:56;;;;;;;2.10;0.95;;;;;;;0.18;65.53;99339.53;2033018;76;20632;-68
2021/04/07 03:19:58;;;;;;;2.30;0.68;;;;;;;0.22;65.08;99343.06;2035634;79;20378;-68
2021/04/07 03:23:00;;;;;;;0.80;0.52;;;;;;;0.25;65.01;99338.06;2036199;79;21035;-68
2021/04/07 03:26:04;;;;;;;2.29;0.60;;;;;;;0.25;65.32;99345.72;2035820;79;21485;-68
2021/04/07 03:29:05;;;;;;;1.75;0.90;;;;;;;0.27;65.06;99352.63;2035824;79;20337;-68
2021/04/07 03:32:07;;;;;;;3.04;0.84;;;;;;;0.28;65.02;99350.94;2035680;76;20346;-68
2021/04/07 03:35:09;;;;;;;2.11;0.75;;;;;;;0.30;65.31;99355.28;2035012;79;20888;-68
2021/04/07 03:38:11;;;;;;;2.69;0.60;;;;;;;0.33;64.82;99344.28;2035629;79;20877;-69
2021/04/07 03:41:13;;;;;;;1.46;0.55;;;;;;;0.37;64.60;99341.06;2035281;79;21141;-68
2021/04/07 03:44:15;;;;;;;1.14;0.50;;;;;;;0.38;64.32;99359.81;2035858;79;20313;-68
2021/04/07 03:47:16;;;;;;;4.51;0.56;;;;;;;0.42;63.92;99353.97;2030487;77;21227;-68
2021/04/07 03:50:18;;;;;;;1.84;0.50;;;;;;;0.44;63.76;99354.91;2030349;79;20309;-68
2021/04/07 03:53:21;;;;;;;2.66;0.70;;;;;;;0.47;63.64;99353.31;2029214;79;20607;-69
2021/04/07 03:56:23;;;;;;;2.39;0.63;;;;;;;0.46;63.43;99354.13;2030508;79;20478;-68
2021/04/07 03:59:25;;;;;;;1.91;1.00;;;;;;;0.44;63.44;99354.91;2030020;79;20853;-68
2021/04/07 04:02:26;;;;;;;2.04;0.66;;;;;;;0.38;63.62;99359.81;2028842;77;44888;-67
2021/04/07 04:05:29;;;;;;;0.75;0.55;;;;;;;0.32;63.73;99367.22;2030794;79;20326;-68
2021/04/07 04:08:30;;;;;;;0.77;0.60;;;;;;;0.18;64.20;99372.72;2030583;79;20346;-68
2021/04/07 04:11:32;;;;;;;0.69;0.69;;;;;;;0.07;64.82;99371.44;2029879;79;20357;-68
2021/04/07 04:14:37;;;;;;;1.74;0.57;;;;;;;0.05;65.07;99357.75;2029901;79;20361;-68
2021/04/07 04:17:40;;;;;;;1.06;0.60;;;;;;;0.08;65.16;99364.66;2034047;77;21536;-68
2021/04/07 04:20:42;;;;;;;4.09;0.90;;;;;;;0.05;65.29;99365.44;2035239;79;20448;-68
2021/04/07 04:23:43;;;;;;;1.74;0.66;;;;;;;0.01;65.33;99368.69;2034083;79;20361;-68
2021/04/07 04:26:46;;;;;;;2.24;0.65;;;;;;;-0.04;65.44;99370.19;2032961;79;20849;-68
2021/04/07 04:29:48;;;;;;;3.01;0.64;;;;;;;-0.12;65.80;99372.44;2033061;79;20350;-67
2021/04/07 04:32:50;;;;;;;2.28;0.80;;;;;;;-0.17;65.96;99373.97;2027608;77;21980;-68
2021/04/07 04:35:52;;;;;;;2.04;0.70;;;;;;;-0.20;66.06;99378.94;2028097;79;20349;-67
2021/04/07 04:38:53;;;;;;;2.05;0.70;;;;;;;-0.27;66.41;99384.63;2027833;79;20333;-68
2021/04/07 04:41:55;;;;;;;2.65;0.80;;;;;;;-0.35;66.53;99384.34;2027920;79;20317;-68
2021/04/07 04:44:57;;;;;;;1.34;0.80;;;;;;;-0.38;66.73;99389.31;2027074;79;20896;-65
2021/04/07 04:47:58;;;;;;;3.03;0.65;;;;;;;-0.44;67.09;99403.50;2032587;79;20674;-67
2021/04/07 04:51:00;;;;;;;0.86;0.65;;;;;;;-0.51;67.43;99410.06;2033149;79;20305;-67
2021/04/07 04:54:02;;;;;;;3.69;1.24;;;;;;;-0.52;67.65;99407.44;2032410;79;20857;-68
2021/04/07 04:57:04;;;;;;;1.44;0.55;;;;;;;-0.56;68.00;99411.53;2032750;79;20338;-67
2021/04/07 05:00:07;;;;;;;1.77;0.80;;;;;;;-0.59;68.29;99418.19;2032008;79;20320;-68
2021/04/07 05:03:09;;;;;;;0.85;0.75;;;;;;;-0.58;68.76;99431.00;2026395;77;20917;-68
2021/04/07 05:06:10;;;;;;;2.40;0.64;;;;;;;-0.55;68.77;99436.22;2028228;79;20305;-68
2021/04/07 05:09:12;;;;;;;1.04;0.60;;;;;;;-0.57;68.92;99450.59;2027845;79;20298;-68
2021/04/07 05:12:14;;;;;;;2.13;0.73;;;;;;;-0.58;69.05;99453.09;2027394;79;20341;-68
2021/04/07 05:15:15;;;;;;;2.22;0.73;;;;;;;-0.51;69.38;99455.09;2027547;76;21014;-67
2021/04/07 05:18:19;;;;;;;2.13;0.70;;;;;;;-0.45;69.47;99451.09;2035767;79;20199;-68
2021/04/07 05:21:20;;;;;;;2.19;0.86;;;;;;;-0.42;69.50;99460.53;2035169;79;20352;-68
2021/04/07 05:24:22;;;;;;;1.27;0.74;;;;;;;-0.39;69.84;99478.50;2034814;79;20363;-68
2021/04/07 05:27:24;;;;;;;1.90;0.88;;;;;;;-0.34;70.23;99470.25;2038496;79;20340;-67
2021/04/07 05:30:27;;;;;;;1.42;0.80;;;;;;;-0.32;70.41;99471.19;2033743;77;21024;-68
2021/04/07 05:33:31;;;;;;;3.15;1.00;;;;;;;-0.26;70.59;99477.34;2028908;79;20379;-68
2021/04/07 05:36:32;;;;;;;1.89;0.90;;;;;;;-0.22;70.77;99490.28;2027743;79;20687;-67
2021/04/07 05:39:35;;;;;;;1.98;0.93;;;;;;;-0.11;70.57;99499.22;2030184;79;20309;-68
2021/04/07 05:42:36;;;;;;;2.74;0.90;;;;;;;-0.05;70.61;99496.91;2030599;79;20401;-68
2021/04/07 05:45:39;;;;;;;2.15;0.93;;;;;;;-0.05;70.56;99503.69;2030346;77;20334;-68
2021/04/07 05:48:41;;;;;;;1.88;1.05;;;;;;;0.01;70.43;99511.63;2036458;79;20772;-68
2021/04/07 05:51:44;;;;;;;3.16;0.96;;;;;;;0.07;70.17;99518.63;2037329;79;20878;-68
2021/04/07 05:54:45;;;;;;;3.09;1.02;;;;;;;0.08;70.37;99521.25;2036809;79;20317;-68
2021/04/07 05:57:57;;;;;;;1.54;1.20;;;;;;;0.17;70.42;99525.81;2036908;79;20801;-68
2021/04/07 06:00:58;;;;;;;2.65;0.85;;;;;;;0.20;69.80;99533.63;2034394;76;54285;-68
2021/04/07 06:04:00;;;;;;;1.41;0.84;;;;;;;0.23;69.54;99538.84;2031391;79;20463;-68
2021/04/07 06:07:02;;;;;;;3.60;0.88;;;;;;;0.28;69.37;99538.19;2031505;79;20507;-67
2021/04/07 06:10:04;;;;;;;1.67;1.00;;;;;;;0.35;69.31;99540.97;2032389;79;20365;-67
2021/04/07 06:13:06;;;;;;;2.90;1.00;;;;;;;0.38;68.92;99543.66;2031268;79;20427;-67
2021/04/07 06:16:07;;;;;;;2.51;1.04;;;;;;;0.51;68.47;99550.97;2033645;77;25980;-68
2021/04/07 06:19:09;;;;;;;2.63;1.30;;;;;;;0.65;67.96;99551.50;2036645;79;20342;-68
2021/04/07 06:22:11;;;;;;;4.16;0.90;;;;;;;0.67;67.73;99553.28;2037136;79;20894;-67
2021/04/07 06:25:13;;;;;;;2.99;0.94;;;;;;;0.74;67.78;99564.63;2036156;79;20375;-67
2021/04/07 06:28:17;;;;;;;1.40;1.00;;;;;;;0.78;67.66;99563.91;2037650;79;20296;-68
2021/04/07 06:31:18;;;;;;;2.49;1.02;;;;;;;0.80;67.25;99569.94;2034886;77;21865;-68
2021/04/07 06:34:20;;;;;;;3.36;1.04;;;;;;;0.83;67.37;99578.59;2032549;79;20352;-68
2021/04/07 06:37:26;;;;;;;3.84;1.04;;;;;;;0.88;67.10;99577.06;2032605;79;20329;-68
2021/04/07 06:40:28;;;;;;;4.86;1.49;;;;;;;0.97;67.13;99573.13;2032184;79;20783;-68
2021/04/07 06:43:33;;;;;;;2.21;1.01;;;;;;;1.50;66.28;99581.03;2030113;79;20439;-68
2021/04/07 06:46:35;;;;;;;1.50;0.93;;;;;;;1.99;64.75;99579.25;2034212;77;22994;-67
2021/04/07 06:49:39;;;;;;;2.22;0.91;;;;;;;1.99;64.11;99592.06;2035891;79;20444;-68
2021/04/07 06:52:43;;;;;;;2.63;0.86;;;;;;;1.89;63.53;99588.31;2036304;79;20338;-67
2021/04/07 06:55:45;;;;;;;4.51;1.04;;;;;;;1.75;63.51;99589.53;2035680;79;20326;-68
2021/04/07 06:58:47;;;;;;;1.96;0.70;;;;;;;1.78;64.24;99593.06;2035641;79;20316;-68
2021/04/07 07:01:49;;;;;;;2.58;1.10;;;;;;;1.85;64.00;99591.59;2033376;76;22160;-68
2021/04/07 07:04:51;;;;;;;2.80;1.34;;;;;;;1.91;63.65;99607.13;2030644;79;20747;-68
2021/04/07 07:08:00;;;;;;;2.78;0.90;;;;;;;2.03;63.39;99616.94;2030559;79;20705;-66
2021/04/07 07:11:08;;;;;;;;;;;;;;;2.55;62.15;99610.91;2031375;79;21129;-68
2021/04/07 07:14:13;;;;;;;1.51;0.77;;;;;;;3.15;60.43;99605.84;2030195;79;20049;-68
2021/04/07 07:17:29;;;;;;;2.44;0.70;;;;;;;3.87;58.57;99609.53;2034012;76;20309;-69
2021/04/07 07:20:36;;;;;;;2.34;0.70;;;;;;;4.38;56.77;99597.94;2036160;79;20322;-66
2021/04/07 07:23:38;;;;;;;4.13;1.25;;;;;;;4.60;55.42;99599.28;2037605;79;20308;-68
2021/04/07 07:26:41;;;;;;;1.69;0.88;;;;;;;4.72;54.59;99597.88;2037392;79;20307;-67
2021/04/07 07:29:51;;;;;;;3.21;1.24;;;;;;;4.62;54.63;99607.91;2037465;79;20721;-67
2021/04/07 07:32:53;;;;;;;1.74;0.70;;;;;;;4.43;54.01;99604.91;2035043;77;53206;-66
2021/04/07 07:36:06;;;;;;;2.60;1.29;;;;;;;4.08;54.72;99616.91;2031854;79;20322;-65
2021/04/07 07:39:08;;;;;;;0.75;0.50;;;;;;;3.81;55.08;99601.69;2032455;79;20432;-66
2021/04/07 07:42:10;;;;;;;1.30;0.65;;;;;;;3.59;55.90;99615.66;2032760;79;20322;-65
2021/04/07 07:45:14;;;;;;;1.80;0.70;;;;;;;3.52;56.29;99626.59;2031717;77;21001;-66
2021/04/07 07:48:21;;;;;;;2.31;0.98;;;;;;;3.33;56.65;99632.03;2037556;79;20831;-66
2021/04/07 07:51:24;;;;;;;3.80;0.95;;;;;;;3.22;56.99;99624.00;2037774;79;20358;-66
2021/04/07 07:54:26;;;;;;;3.99;0.95;;;;;;;3.10;57.49;99631.38;2037551;79;20320;-64
2021/04/07 07:57:28;;;;;;;4.99;0.90;;;;;;;3.12;58.36;99627.16;2037699;79;20313;-67
2021/04/07 08:00:29;;;;;;;2.56;0.94;;;;;;;3.18;57.79;99629.03;2037016;76;20376;-67
2021/04/07 08:03:31;;;;;;;1.64;0.70;;;;;;;3.18;57.69;99639.28;2037685;79;20304;-67
2021/04/07 08:06:33;;;;;;;2.89;0.96;;;;;;;3.16;57.45;99641.81;2038067;79;20937;-66
2021/04/07 08:09:35;;;;;;;2.84;0.80;;;;;;;3.20;57.31;99635.94;2037508;79;20326;-67
2021/04/07 08:12:39;;;;;;;1.54;0.70;;;;;;;3.16;57.29;99630.69;2036909;79;20531;-66
2021/04/07 08:15:41;;;;;;;4.18;0.90;;;;;;;3.09;57.86;99636.47;2035471;77;20357;-65
2021/04/07 08:18:47;;;;;;;4.47;0.70;;;;;;;3.03;57.65;99642.25;2032508;79;21174;-66
2021/04/07 08:21:50;;;;;;;3.26;0.70;;;;;;;3.01;57.54;99655.06;2031988;79;20528;-67
2021/04/07 08:24:56;;;;;;;3.55;0.90;;;;;;;2.93;57.68;99664.22;2032414;79;20856;-67
2021/04/07 08:27:59;;;;;;;3.29;0.73;;;;;;;2.91;58.50;99676.13;2032601;79;20331;-67
2021/04/07 08:31:02;;;;;;;1.83;0.99;;;;;;;2.90;58.08;99670.97;2032984;76;20823;-67
2021/04/07 08:34:08;;;;;;;1.89;0.65;;;;;;;2.92;58.71;99666.75;2035962;79;20352;-67
2021/04/07 08:37:12;;;;;;;1.09;0.70;;;;;;;3.03;58.72;99670.47;2036247;79;20341;-67
2021/04/07 08:40:17;;;;;;;3.91;0.70;;;;;;;3.09;58.50;99670.69;2035858;79;20312;-67
2021/04/07 08:43:18;;;;;;;2.20;0.96;;;;;;;3.18;58.21;99670.94;2036262;79;20309;-67
2021/04/07 08:46:27;;;;;;;3.06;0.81;;;;;;;3.28;57.93;99682.34;2032732;77;20342;-68
2021/04/07 08:49:35;;;;;;;3.61;0.90;;;;;;;3.37;58.14;99680.03;2030932;79;20901;-67
2021/04/07 08:52:44;;;;;;;8.43;1.19;;;;;;;3.45;57.07;99678.59;2030052;79;20648;-67
2021/04/07 08:55:54;;;;;;;4.30;1.21;;;;;;;3.39;56.97;99690.34;2030695;79;20339;-67
2021/04/07 08:58:58;;;;;;;2.92;0.81;;;;;;;3.45;56.83;99682.84;2030341;79;20435;-67
2021/04/07 09:02:07;;;;;;;3.31;1.01;;;;;;;3.57;56.47;99683.19;2033185;77;25249;-68
2021/04/07 09:05:09;;;;;;;;;;;;;;;3.75;56.38;99695.66;2035783;79;20441;-67
2021/04/07 09:08:15;;;;;;;3.03;0.75;;;;;;;3.79;55.72;99684.66;2035715;79;20076;-67
2021/04/07 09:11:35;;;;;;;2.45;0.70;;;;;;;3.85;55.07;99654.88;2035891;79;20209;-67
2021/04/07 09:14:37;;;;;;;3.00;0.80;;;;;;;3.86;55.09;99664.31;2035584;79;21339;-67
2021/04/07 09:17:47;;;;;;;2.64;0.88;;;;;;;3.90;55.23;99668.69;2030685;76;20302;-67
2021/04/07 09:20:53;;;;;;;3.21;0.66;;;;;;;4.01;55.50;99662.97;2030173;79;20305;-67
2021/04/07 09:24:02;;;;;;;2.92;0.74;;;;;;;4.00;55.45;99656.09;2030289;79;20450;-68
2021/04/07 09:27:04;;;;;;;3.35;0.90;;;;;;;4.03;56.25;99671.59;2030052;79;20752;-68
2021/04/07 09:30:08;;;;;;;4.59;0.91;;;;;;;4.18;56.15;99672.88;2029977;79;20403;-67
2021/04/07 09:33:10;;;;;;;2.38;0.95;;;;;;;4.25;55.20;99661.91;2034671;76;20327;-67
2021/04/07 09:36:14;;;;;;;1.49;0.70;;;;;;;4.23;55.11;99660.13;2034827;79;20822;-68
2021/04/07 09:39:23;;;;;;;4.10;0.96;;;;;;;4.24;55.16;99665.28;2035089;79;20324;-68
2021/04/07 09:42:25;;;;;;;;;;;;;;;4.39;56.06;99667.38;2035193;79;21307;-68
2021/04/07 09:45:27;;;;;;;1.13;0.60;;;;;;;4.46;53.19;99656.41;2033891;77;21035;-68
2021/04/07 09:48:40;;;;;;;3.04;0.66;;;;;;;4.35;51.25;99675.00;2030400;79;20282;-68
2021/04/07 09:51:45;;;;;;;5.32;0.75;;;;;;;4.19;50.79;99686.59;2030619;79;20353;-67
2021/04/07 09:54:47;;;;;;;2.01;0.60;;;;;;;4.07;50.74;99678.53;2030152;79;20321;-67
2021/04/07 09:57:59;;;;;;;3.94;0.80;;;;;;;3.99;50.51;99700.59;2030552;79;20322;-67
2021/04/07 10:01:01;;;;;;;2.92;0.93;;;;;;;3.90;51.34;99719.19;2029857;77;20795;-69
2021/04/07 10:04:02;;;;;;;3.05;0.70;;;;;;;3.81;52.02;99699.28;2029783;79;20342;-68
2021/04/07 10:07:18;;;;;;;4.13;0.65;;;;;;;3.68;52.28;99702.31;2030072;79;20347;-67
2021/04/07 10:10:26;;;;;;;2.09;0.74;;;;;;;3.54;53.48;99701.06;2030158;79;20397;-67
2021/04/07 10:13:30;;;;;;;2.58;0.94;;;;;;;3.47;54.68;99707.72;2030650;79;20332;-67
2021/04/07 10:16:38;;;;;;;4.96;0.93;;;;;;;3.32;55.14;99717.53;2029704;76;44402;-67
2021/04/07 10:19:40;;;;;;;2.96;0.66;;;;;;;3.23;56.48;99737.78;2030085;79;20350;-67
2021/04/07 10:22:43;;;;;;;3.13;0.70;;;;;;;3.12;57.11;99731.47;2029775;79;20913;-67
2021/04/07 10:25:46;;;;;;;1.73;0.54;;;;;;;2.83;56.76;99740.81;2029987;79;20370;-66
2021/04/07 10:28:59;;;;;;;5.06;0.59;;;;;;;2.70;58.43;99743.00;2030638;79;20469;-67
2021/04/07 10:32:01;;;;;;;2.08;0.71;;;;;;;2.56;59.37;99756.19;2032934;76;20320;-67
2021/04/07 10:35:03;;;;;;;1.27;0.61;;;;;;;2.53;61.42;99753.53;2033242;79;20364;-67
2021/04/07 10:38:12;;;;;;;2.00;0.50;;;;;;;2.59;62.80;99752.03;2038438;79;20368;-66
2021/04/07 10:41:14;;;;;;;1.26;0.73;;;;;;;2.67;61.78;99757.38;2033482;79;20799;-66
2021/04/07 10:44:32;;;;;;;4.10;0.73;;;;;;;2.65;60.97;99753.91;2035415;79;20199;-67
2021/04/07 10:47:35;;;;;;;4.46;0.78;;;;;;;2.65;61.31;99756.47;2030631;76;20321;-67
2021/04/07 10:50:39;;;;;;;1.55;0.73;;;;;;;2.60;61.85;99755.44;2029148;79;20294;-67
2021/04/07 10:53:44;;;;;;;1.49;0.65;;;;;;;2.63;62.67;99758.97;2029331;79;20384;-67
2021/04/07 10:56:45;;;;;;;3.17;0.77;;;;;;;2.58;62.12;99747.72;2028353;79;20321;-66
2021/04/07 10:59:48;;;;;;;2.90;0.88;;;;;;;2.60;62.10;99745.19;2029910;79;20350;-67
2021/04/07 11:02:52;;;;;;;3.84;1.38;;;;;;;2.57;61.41;99747.66;2034288;77;20960;-66
2021/04/07 11:05:54;;;;;;;2.79;0.86;;;;;;;2.50;61.35;99753.38;2034310;79;20304;-66
2021/04/07 11:08:55;;;;;;;2.89;0.80;;;;;;;2.51;61.14;99762.81;2035050;79;20414;-66
2021/04/07 11:11:59;;;;;;;3.88;0.70;;;;;;;2.58;60.77;99765.66;2035599;79;20326;-67
2021/04/07 11:15:05;;;;;;;2.09;0.66;;;;;;;2.63;61.18;99769.25;2035258;79;20356;-66
2021/04/07 11:18:07;;;;;;;3.14;0.91;;;;;;;2.78;62.15;99757.75;2030795;76;20343;-66
2021/04/07 11:21:14;;;;;;;1.75;0.63;;;;;;;2.81;61.57;99753.59;2030230;79;20325;-66
2021/04/07 11:24:16;;;;;;;2.03;0.60;;;;;;;2.76;62.28;99759.41;2029990;79;20343;-68
2021/04/07 11:27:17;;;;;;;2.75;0.70;;;;;;;2.77;61.59;99750.88;2029776;79;20310;-68
2021/04/07 11:30:20;;;;;;;3.01;0.99;;;;;;;2.77;62.04;99756.88;2030467;76;26311;-68
2021/04/07 11:33:24;;;;;;;1.36;0.65;;;;;;;2.72;62.04;99761.00;2035273;79;20328;-67
2021/04/07 11:37:40;;;;;;;1.94;0.60;;;;;;;2.69;61.98;99758.31;2035205;79;21119;-68
2021/04/07 11:40:11;;;;;;;2.74;1.09;;;;;;;2.78;63.17;99760.31;2036829;79;20330;-68
2021/04/07 11:43:19;;;;;;;1.65;0.60;;;;;;;2.94;62.64;99763.41;2035452;79;20575;-67
2021/04/07 11:46:20;;;;;;;1.16;0.60;;;;;;;3.00;60.82;99768.72;2034783;76;20610;-67
2021/04/07 11:49:22;;;;;;;3.04;0.90;;;;;;;2.98;60.30;99760.13;2034930;79;20338;-68
2021/04/07 11:52:28;;;;;;;4.47;0.80;;;;;;;2.96;60.27;99772.03;2035468;79;20316;-68
2021/04/07 11:55:30;;;;;;;3.03;0.70;;;;;;;2.95;59.42;99766.84;2035742;79;20325;-67
2021/04/07 11:58:32;;;;;;;3.00;0.63;;;;;;;2.94;60.61;99768.53;2035802;79;20917;-68
2021/04/07 12:01:34;;;;;;;3.81;0.76;;;;;;;2.93;61.02;99771.06;2032226;77;20939;-67
2021/04/07 12:04:35;;;;;;;2.03;0.69;;;;;;;2.85;59.67;99775.94;2031374;79;20383;-67
2021/04/07 12:07:37;;;;;;;1.71;0.77;;;;;;;2.83;60.35;99777.56;2032232;79;20332;-66
2021/04/07 12:10:39;;;;;;;2.10;0.86;;;;;;;2.85;60.69;99777.63;2032855;79;20359;-66
2021/04/07 12:13:41;;;;;;;1.95;0.70;;;;;;;2.88;60.75;99776.06;2032109;79;21250;-66
2021/04/07 12:16:43;;;;;;;2.15;0.64;;;;;;;2.93;60.18;99768.50;2034377;76;20730;-70
2021/04/07 12:19:44;;;;;;;2.01;0.80;;;;;;;2.94;61.15;99759.97;2036859;79;20356;-66
2021/04/07 12:22:49;;;;;;;2.54;1.40;;;;;;;2.94;60.57;99765.13;2035418;79;20794;-66
2021/04/07 12:25:50;;;;;;;3.33;1.26;;;;;;;2.99;60.33;99767.00;2034726;79;20322;-65
2021/04/07 12:28:52;;;;;;;3.66;0.81;;;;;;;3.08;59.78;99768.13;2035749;79;20318;-64
2021/04/07 12:31:54;;;;;;;3.46;1.05;;;;;;;3.17;58.78;99773.53;2031732;76;20591;-65
2021/04/07 12:34:56;;;;;;;0.81;0.51;;;;;;;3.25;57.16;99772.94;2029901;79;20443;-65
2021/04/07 12:37:57;;;;;;;3.67;0.77;;;;;;;3.38;56.23;99775.88;2031234;79;20322;-66
2021/04/07 12:41:03;;;;;;;3.11;1.14;;;;;;;3.47;56.43;99773.59;2033241;79;20377;-68
2021/04/07 12:44:05;;;;;;;1.79;0.86;;;;;;;3.58;55.63;99782.47;2030444;79;20868;-65
2021/04/07 12:47:06;;;;;;;1.49;0.84;;;;;;;3.68;55.20;99778.50;2033421;77;35755;-65
2021/04/07 12:50:08;;;;;;;1.98;0.86;;;;;;;3.74;54.20;99776.97;2035638;79;20372;-65
2021/04/07 12:53:10;;;;;;;1.48;0.63;;;;;;;3.78;53.71;99781.38;2034918;79;20350;-65
2021/04/07 12:56:16;;;;;;;1.58;0.54;;;;;;;3.85;53.35;99775.59;2035588;79;20324;-66
2021/04/07 12:59:17;;;;;;;2.65;0.60;;;;;;;3.89;53.53;99774.84;2035623;79;20862;-66
2021/04/07 13:02:19;;;;;;;2.33;0.68;;;;;;;3.94;53.50;99772.38;2031091;77;21662;-65
2021/04/07 13:05:21;;;;;;;1.36;0.65;;;;;;;3.91;53.58;99778.31;2033579;79;20305;-67
2021/04/07 13:08:23;;;;;;;1.79;0.60;;;;;;;3.96;54.18;99777.59;2030537;79;20313;-66
2021/04/07 13:11:25;;;;;;;0.89;0.56;;;;;;;4.01;54.79;99768.31;2030405;79;21032;-67
2021/04/07 13:14:29;;;;;;;3.11;0.64;;;;;;;3.88;52.75;99767.97;2029966;79;20343;-67
2021/04/07 13:17:30;;;;;;;2.95;0.82;;;;;;;3.86;53.69;99771.31;2033494;77;20313;-66
2021/04/07 13:20:33;;;;;;;0.99;0.57;;;;;;;3.87;53.79;99775.63;2035139;79;20426;-66
2021/04/07 13:23:36;;;;;;;1.13;0.55;;;;;;;3.87;53.82;99773.06;2035415;79;20531;-66
2021/04/07 13:26:38;;;;;;;0.60;0.50;;;;;;;3.92;53.77;99781.75;2035600;79;20304;-66
2021/04/07 13:29:40;;;;;;;1.05;0.50;;;;;;;3.96;53.57;99775.91;2034862;79;20338;-67
2021/04/07 13:32:54;;;;;;;0.63;0.40;;;;;;;4.01;52.71;99782.03;2029853;76;21689;-67
2021/04/07 13:36:04;;;;;;;1.24;0.40;;;;;;;4.08;52.68;99780.50;2029921;79;20448;-67
2021/04/07 13:39:10;;;;;;;0.81;0.51;;;;;;;4.17;52.67;99780.75;2029533;79;20832;-67
2021/04/07 13:45:21;;;;;;;0.86;0.59;;;;;;;4.28;52.80;99781.03;2029697;77;20485;-66
2021/04/07 13:48:26;;;;;;;1.36;0.50;;;;;;;4.35;52.29;99782.94;2035442;79;20300;-66
2021/04/07 13:51:29;;;;;;;1.69;0.70;;;;;;;4.38;52.27;99783.91;2035377;79;20313;-67
2021/04/07 13:54:31;;;;;;;5.95;1.41;;;;;;;4.44;52.64;99784.06;2034041;79;20856;-67
2021/04/07 13:57:32;;;;;;;1.11;0.50;;;;;;;4.53;53.61;99778.28;2034815;79;20308;-66
2021/04/07 14:00:34;;;;;;;2.13;0.50;;;;;;;4.63;53.29;99777.69;2032464;77;48376;-67
2021/04/07 14:03:36;;;;;;;1.71;0.45;;;;;;;4.67;53.46;99779.53;2029799;79;20446;-67
2021/04/07 14:06:39;;;;;;;1.45;0.60;;;;;;;4.76;52.62;99786.59;2029671;79;20454;-67
2021/04/07 14:09:41;;;;;;;2.97;0.50;;;;;;;4.96;52.43;99775.06;2029580;79;20382;-67
2021/04/07 14:12:48;;;;;;;1.55;0.60;;;;;;;5.31;53.38;99770.75;2030066;79;20327;-67
2021/04/07 14:15:50;;;;;;;1.67;0.50;;;;;;;5.76;52.68;99768.31;2030161;76;20853;-68
2021/04/07 14:18:51;;;;;;;2.96;0.55;;;;;;;6.15;49.78;99758.81;2034857;79;20313;-67
2021/04/07 14:21:53;;;;;;;1.05;0.55;;;;;;;6.47;47.01;99762.00;2034873;79;20338;-68
2021/04/07 14:24:55;;;;;;;0.52;0.40;;;;;;;6.69;47.47;99755.47;2035519;79;20348;-68
2021/04/07 14:28:00;;;;;;;0.89;0.59;;;;;;;7.04;47.13;99753.47;2034846;79;20338;-68
2021/04/07 14:31:03;;;;;;;1.44;0.44;;;;;;;7.28;45.22;99749.53;2032060;76;50684;-66
2021/04/07 14:34:04;;;;;;;1.19;0.60;;;;;;;7.59;44.05;99737.06;2029732;79;20443;-66
2021/04/07 14:37:07;;;;;;;1.38;0.61;;;;;;;7.85;42.51;99745.13;2029683;79;20329;-66